sensor_id;sensor_type;location;lat;lon;timestamp;P1;durP1;ratioP1;P2;durP2;ratioP2
26530;SDS011;14201;43.188;24.160;2023-04-02T00:01:04;4.63;;;2.13;;
26530;SDS011;14201;43.188;24.160;2023-04-02T00:06:24;4.22;;;2.50;;
26530;SDS011;14201;43.188;24.160;2023-04-02T00:08:54;2.50;;;2.03;;
26530;SDS011;14201;43.188;24.160;2023-04-02T00:11:36;2.80;;;2.20;;
26530;SDS011;14201;43.188;24.160;2023-04-02T00:14:03;2.50;;;2.30;;
26530;SDS011;14201;43.188;24.160;2023-04-02T00:16:36;4.20;;;2.42;;
26530;SDS011;14201;43.188;24.160;2023-04-02T00:19:03;2.65;;;2.40;;
26530;SDS011;14201;43.188;24.160;2023-04-02T00:21:33;3.75;;;2.60;;
26530;SDS011;14201;43.188;24.160;2023-04-02T00:24:01;2.50;;;2.22;;
26530;SDS011;14201;43.188;24.160;2023-04-02T00:26:36;2.80;;;2.40;;
26530;SDS011;14201;43.188;24.160;2023-04-02T00:29:05;2.50;;;2.20;;
26530;SDS011;14201;43.188;24.160;2023-04-02T00:31:31;3.22;;;2.60;;
26530;SDS011;14201;43.188;24.160;2023-04-02T00:33:59;2.85;;;2.40;;
26530;SDS011;14201;43.188;24.160;2023-04-02T00:36:28;2.92;;;2.20;;
26530;SDS011;14201;43.188;24.160;2023-04-02T00:38:56;2.60;;;2.38;;
26530;SDS011;14201;43.188;24.160;2023-04-02T00:41:27;2.88;;;2.58;;
26530;SDS011;14201;43.188;24.160;2023-04-02T00:43:55;3.45;;;2.45;;
26530;SDS011;14201;43.188;24.160;2023-04-02T00:46:30;2.55;;;2.35;;
26530;SDS011;14201;43.188;24.160;2023-04-02T00:49:19;3.15;;;2.15;;
26530;SDS011;14201;43.188;24.160;2023-04-02T00:51:59;2.40;;;2.20;;
26530;SDS011;14201;43.188;24.160;2023-04-02T00:54:30;2.47;;;2.10;;
26530;SDS011;14201;43.188;24.160;2023-04-02T00:57:01;2.20;;;2.00;;
26530;SDS011;14201;43.188;24.160;2023-04-02T01:04:50;3.95;;;2.00;;
26530;SDS011;14201;43.188;24.160;2023-04-02T01:07:21;2.20;;;1.90;;
26530;SDS011;14201;43.188;24.160;2023-04-02T01:15:41;2.20;;;1.90;;
26530;SDS011;14201;43.188;24.160;2023-04-02T01:23:19;2.20;;;1.77;;
26530;SDS011;14201;43.188;24.160;2023-04-02T01:25:56;2.38;;;1.70;;
26530;SDS011;14201;43.188;24.160;2023-04-02T01:28:42;1.33;;;1.23;;
26530;SDS011;14201;43.188;24.160;2023-04-02T01:31:15;2.25;;;1.88;;
26530;SDS011;14201;43.188;24.160;2023-04-02T01:33:41;3.15;;;2.08;;
26530;SDS011;14201;43.188;24.160;2023-04-02T01:38:35;2.50;;;1.70;;
26530;SDS011;14201;43.188;24.160;2023-04-02T01:41:21;3.00;;;1.60;;
26530;SDS011;14201;43.188;24.160;2023-04-02T01:43:57;2.35;;;1.40;;
26530;SDS011;14201;43.188;24.160;2023-04-02T01:46:32;1.92;;;1.50;;
26530;SDS011;14201;43.188;24.160;2023-04-02T01:48:59;2.40;;;1.70;;
26530;SDS011;14201;43.188;24.160;2023-04-02T01:51:29;2.97;;;1.50;;
26530;SDS011;14201;43.188;24.160;2023-04-02T01:53:58;1.85;;;1.67;;
26530;SDS011;14201;43.188;24.160;2023-04-02T01:56:26;1.63;;;1.45;;
26530;SDS011;14201;43.188;24.160;2023-04-02T01:58:57;1.85;;;1.50;;
26530;SDS011;14201;43.188;24.160;2023-04-02T02:01:28;4.55;;;1.65;;
26530;SDS011;14201;43.188;24.160;2023-04-02T02:04:00;2.25;;;1.33;;
26530;SDS011;14201;43.188;24.160;2023-04-02T02:06:26;2.15;;;1.38;;
26530;SDS011;14201;43.188;24.160;2023-04-02T02:08:53;1.38;;;1.23;;
26530;SDS011;14201;43.188;24.160;2023-04-02T02:11:25;3.30;;;1.40;;
26530;SDS011;14201;43.188;24.160;2023-04-02T02:13:57;1.58;;;1.30;;
26530;SDS011;14201;43.188;24.160;2023-04-02T02:16:23;1.35;;;1.00;;
26530;SDS011;14201;43.188;24.160;2023-04-02T02:18:57;3.25;;;1.40;;
26530;SDS011;14201;43.188;24.160;2023-04-02T02:22:12;1.23;;;1.13;;
26530;SDS011;14201;43.188;24.160;2023-04-02T02:24:22;2.05;;;1.23;;
26530;SDS011;14201;43.188;24.160;2023-04-02T02:32:30;2.45;;;1.25;;
26530;SDS011;14201;43.188;24.160;2023-04-02T02:35:00;1.40;;;1.23;;
26530;SDS011;14201;43.188;24.160;2023-04-02T02:37:46;2.72;;;1.15;;
26530;SDS011;14201;43.188;24.160;2023-04-02T02:40:20;1.35;;;1.17;;
26530;SDS011;14201;43.188;24.160;2023-04-02T02:42:59;1.20;;;1.00;;
26530;SDS011;14201;43.188;24.160;2023-04-02T02:45:30;1.13;;;1.02;;
26530;SDS011;14201;43.188;24.160;2023-04-02T02:48:01;1.10;;;1.00;;
26530;SDS011;14201;43.188;24.160;2023-04-02T02:50:30;2.00;;;1.00;;
26530;SDS011;14201;43.188;24.160;2023-04-02T02:52:58;1.00;;;0.90;;
26530;SDS011;14201;43.188;24.160;2023-04-02T02:55:28;1.80;;;1.02;;
26530;SDS011;14201;43.188;24.160;2023-04-02T03:00:31;1.77;;;0.95;;
26530;SDS011;14201;43.188;24.160;2023-04-02T03:02:59;1.30;;;1.00;;
26530;SDS011;14201;43.188;24.160;2023-04-02T03:05:29;1.40;;;0.90;;
26530;SDS011;14201;43.188;24.160;2023-04-02T03:07:55;1.95;;;1.00;;
26530;SDS011;14201;43.188;24.160;2023-04-02T03:10:44;2.40;;;1.10;;
26530;SDS011;14201;43.188;24.160;2023-04-02T03:18:33;2.08;;;1.00;;
26530;SDS011;14201;43.188;24.160;2023-04-02T03:21:27;1.13;;;0.80;;
26530;SDS011;14201;43.188;24.160;2023-04-02T03:24:03;3.55;;;1.00;;
26530;SDS011;14201;43.188;24.160;2023-04-02T03:29:08;4.03;;;0.95;;
26530;SDS011;14201;43.188;24.160;2023-04-02T03:31:47;2.50;;;0.85;;
26530;SDS011;14201;43.188;24.160;2023-04-02T03:34:25;2.67;;;0.82;;
26530;SDS011;14201;43.188;24.160;2023-04-02T03:39:55;1.48;;;0.80;;
26530;SDS011;14201;43.188;24.160;2023-04-02T03:42:39;1.08;;;0.73;;
26530;SDS011;14201;43.188;24.160;2023-04-02T03:50:30;0.98;;;0.70;;
26530;SDS011;14201;43.188;24.160;2023-04-02T03:53:05;2.35;;;0.85;;
26530;SDS011;14201;43.188;24.160;2023-04-02T03:55:34;1.30;;;0.80;;
26530;SDS011;14201;43.188;24.160;2023-04-02T04:00:47;0.70;;;0.70;;
26530;SDS011;14201;43.188;24.160;2023-04-02T04:03:52;1.13;;;0.90;;
26530;SDS011;14201;43.188;24.160;2023-04-02T04:08:47;3.97;;;0.88;;
26530;SDS011;14201;43.188;24.160;2023-04-02T04:11:21;4.05;;;1.05;;
26530;SDS011;14201;43.188;24.160;2023-04-02T04:16:53;2.22;;;1.00;;
26530;SDS011;14201;43.188;24.160;2023-04-02T04:19:41;2.47;;;0.85;;
26530;SDS011;14201;43.188;24.160;2023-04-02T04:22:14;1.98;;;0.85;;
26530;SDS011;14201;43.188;24.160;2023-04-02T04:24:41;2.45;;;1.02;;
26530;SDS011;14201;43.188;24.160;2023-04-02T04:30:17;1.83;;;0.90;;
26530;SDS011;14201;43.188;24.160;2023-04-02T04:32:52;1.35;;;0.70;;
26530;SDS011;14201;43.188;24.160;2023-04-02T04:35:32;2.30;;;0.80;;
26530;SDS011;14201;43.188;24.160;2023-04-02T04:38:14;1.40;;;0.70;;
26530;SDS011;14201;43.188;24.160;2023-04-02T04:40:43;1.60;;;0.80;;
26530;SDS011;14201;43.188;24.160;2023-04-02T04:43:19;2.28;;;0.80;;
26530;SDS011;14201;43.188;24.160;2023-04-02T04:46:05;2.95;;;0.77;;
26530;SDS011;14201;43.188;24.160;2023-04-02T04:48:55;1.25;;;0.90;;
26530;SDS011;14201;43.188;24.160;2023-04-02T04:51:35;2.20;;;0.80;;
26530;SDS011;14201;43.188;24.160;2023-04-02T04:54:03;0.80;;;0.70;;
26530;SDS011;14201;43.188;24.160;2023-04-02T04:56:29;4.45;;;0.90;;
26530;SDS011;14201;43.188;24.160;2023-04-02T04:59:04;0.85;;;0.60;;
26530;SDS011;14201;43.188;24.160;2023-04-02T05:01:40;0.73;;;0.60;;
26530;SDS011;14201;43.188;24.160;2023-04-02T05:09:35;1.27;;;0.60;;
26530;SDS011;14201;43.188;24.160;2023-04-02T05:12:20;1.27;;;0.80;;
26530;SDS011;14201;43.188;24.160;2023-04-02T05:14:59;1.38;;;0.70;;
26530;SDS011;14201;43.188;24.160;2023-04-02T05:20:24;1.85;;;0.70;;
26530;SDS011;14201;43.188;24.160;2023-04-02T05:25:52;1.90;;;0.77;;
26530;SDS011;14201;43.188;24.160;2023-04-02T05:28:34;1.17;;;0.70;;
26530;SDS011;14201;43.188;24.160;2023-04-02T05:34:09;1.55;;;0.70;;
26530;SDS011;14201;43.188;24.160;2023-04-02T05:36:36;0.50;;;0.50;;
26530;SDS011;14201;43.188;24.160;2023-04-02T05:39:06;4.22;;;1.02;;
26530;SDS011;14201;43.188;24.160;2023-04-02T05:41:35;2.72;;;0.57;;
26530;SDS011;14201;43.188;24.160;2023-04-02T05:47:01;1.58;;;0.70;;
26530;SDS011;14201;43.188;24.160;2023-04-02T05:49:35;1.58;;;0.70;;
26530;SDS011;14201;43.188;24.160;2023-04-02T05:52:11;1.30;;;0.68;;
26530;SDS011;14201;43.188;24.160;2023-04-02T05:54:46;0.65;;;0.60;;
26530;SDS011;14201;43.188;24.160;2023-04-02T05:57:18;0.70;;;0.65;;
26530;SDS011;14201;43.188;24.160;2023-04-02T05:59:54;0.70;;;0.60;;
26530;SDS011;14201;43.188;24.160;2023-04-02T06:02:24;1.52;;;0.80;;
26530;SDS011;14201;43.188;24.160;2023-04-02T06:04:59;1.58;;;0.60;;
26530;SDS011;14201;43.188;24.160;2023-04-02T06:07:40;1.27;;;0.70;;
26530;SDS011;14201;43.188;24.160;2023-04-02T06:10:22;1.00;;;0.70;;
26530;SDS011;14201;43.188;24.160;2023-04-02T06:12:55;0.60;;;0.55;;
26530;SDS011;14201;43.188;24.160;2023-04-02T06:15:27;1.85;;;0.60;;
26530;SDS011;14201;43.188;24.160;2023-04-02T06:17:58;0.82;;;0.50;;
26530;SDS011;14201;43.188;24.160;2023-04-02T06:20:26;4.32;;;0.77;;
26530;SDS011;14201;43.188;24.160;2023-04-02T06:22:54;4.20;;;0.75;;
26530;SDS011;14201;43.188;24.160;2023-04-02T06:25:42;1.00;;;0.70;;
26530;SDS011;14201;43.188;24.160;2023-04-02T06:28:35;1.73;;;0.73;;
26530;SDS011;14201;43.188;24.160;2023-04-02T06:31:27;1.10;;;0.75;;
26530;SDS011;14201;43.188;24.160;2023-04-02T06:33:53;1.08;;;0.60;;
26530;SDS011;14201;43.188;24.160;2023-04-02T06:36:20;1.25;;;0.85;;
26530;SDS011;14201;43.188;24.160;2023-04-02T06:38:48;0.73;;;0.60;;
26530;SDS011;14201;43.188;24.160;2023-04-02T06:41:22;1.00;;;0.70;;
26530;SDS011;14201;43.188;24.160;2023-04-02T06:43:53;0.82;;;0.63;;
26530;SDS011;14201;43.188;24.160;2023-04-02T06:46:25;1.05;;;0.52;;
26530;SDS011;14201;43.188;24.160;2023-04-02T06:49:02;2.95;;;0.60;;
26530;SDS011;14201;43.188;24.160;2023-04-02T06:51:38;1.55;;;0.65;;
26530;SDS011;14201;43.188;24.160;2023-04-02T06:54:07;0.90;;;0.57;;
26530;SDS011;14201;43.188;24.160;2023-04-02T06:56:43;1.40;;;0.70;;
26530;SDS011;14201;43.188;24.160;2023-04-02T07:16:36;2.50;;;0.70;;
26530;SDS011;14201;43.188;24.160;2023-04-02T07:19:02;0.93;;;0.60;;
26530;SDS011;14201;43.188;24.160;2023-04-02T07:21:28;1.20;;;0.60;;
26530;SDS011;14201;43.188;24.160;2023-04-02T09:04:59;1.17;;;0.65;;
26530;SDS011;14201;43.188;24.160;2023-04-02T09:07:27;1.85;;;1.08;;
26530;SDS011;14201;43.188;24.160;2023-04-02T09:09:53;2.25;;;1.10;;
26530;SDS011;14201;43.188;24.160;2023-04-02T09:14:57;1.00;;;0.73;;
26530;SDS011;14201;43.188;24.160;2023-04-02T09:17:44;4.75;;;4.35;;
26530;SDS011;14201;43.188;24.160;2023-04-02T09:25:11;7.40;;;6.78;;
26530;SDS011;14201;43.188;24.160;2023-04-02T09:27:41;3.90;;;3.60;;
26530;SDS011;14201;43.188;24.160;2023-04-02T09:32:47;1.30;;;0.80;;
26530;SDS011;14201;43.188;24.160;2023-04-02T09:37:40;1.58;;;1.17;;
26530;SDS011;14201;43.188;24.160;2023-04-02T09:40:16;1.35;;;1.10;;
26530;SDS011;14201;43.188;24.160;2023-04-02T09:42:47;4.25;;;0.80;;
26530;SDS011;14201;43.188;24.160;2023-04-02T09:45:14;1.55;;;1.35;;
26530;SDS011;14201;43.188;24.160;2023-04-02T09:47:50;0.70;;;0.70;;
26530;SDS011;14201;43.188;24.160;2023-04-02T09:52:47;3.50;;;3.20;;
26530;SDS011;14201;43.188;24.160;2023-04-02T10:20:36;0.90;;;0.60;;
26530;SDS011;14201;43.188;24.160;2023-04-02T10:23:08;3.40;;;1.35;;
26530;SDS011;14201;43.188;24.160;2023-04-02T10:54:32;1.88;;;1.52;;
26530;SDS011;14201;43.188;24.160;2023-04-02T10:59:38;1.20;;;1.00;;
26530;SDS011;14201;43.188;24.160;2023-04-02T11:23:32;1.77;;;1.63;;
26530;SDS011;14201;43.188;24.160;2023-04-02T11:28:38;10.75;;;8.73;;
26530;SDS011;14201;43.188;24.160;2023-04-02T12:22:34;5.10;;;3.50;;
26530;SDS011;14201;43.188;24.160;2023-04-02T12:27:48;2.25;;;2.05;;
26530;SDS011;14201;43.188;24.160;2023-04-02T12:30:42;1.27;;;1.17;;
26530;SDS011;14201;43.188;24.160;2023-04-02T12:36:04;5.88;;;5.38;;
26530;SDS011;14201;43.188;24.160;2023-04-02T12:53:37;0.90;;;0.40;;
26530;SDS011;14201;43.188;24.160;2023-04-02T13:53:21;6.70;;;6.10;;
26530;SDS011;14201;43.188;24.160;2023-04-02T14:06:07;0.82;;;0.82;;
26530;SDS011;14201;43.188;24.160;2023-04-02T14:16:48;5.13;;;4.63;;
26530;SDS011;14201;43.188;24.160;2023-04-02T14:27:15;1.75;;;1.35;;
26530;SDS011;14201;43.188;24.160;2023-04-02T14:29:45;5.80;;;5.20;;
26530;SDS011;14201;43.188;24.160;2023-04-02T14:32:30;5.38;;;4.93;;
26530;SDS011;14201;43.188;24.160;2023-04-02T14:35:16;5.93;;;3.90;;
26530;SDS011;14201;43.188;24.160;2023-04-02T14:38:04;2.67;;;0.95;;
26530;SDS011;14201;43.188;24.160;2023-04-02T14:40:56;4.38;;;2.88;;
26530;SDS011;14201;43.188;24.160;2023-04-02T14:43:31;0.90;;;0.60;;
26530;SDS011;14201;43.188;24.160;2023-04-02T14:46:09;1.83;;;1.27;;
26530;SDS011;14201;43.188;24.160;2023-04-02T14:52:00;3.05;;;2.78;;
26530;SDS011;14201;43.188;24.160;2023-04-02T14:54:10;7.03;;;6.43;;
26530;SDS011;14201;43.188;24.160;2023-04-02T14:56:44;3.20;;;3.00;;
26530;SDS011;14201;43.188;24.160;2023-04-02T15:02:38;1.55;;;1.10;;
26530;SDS011;14201;43.188;24.160;2023-04-02T15:04:51;1.20;;;0.88;;
26530;SDS011;14201;43.188;24.160;2023-04-02T15:07:23;19.38;;;17.73;;
26530;SDS011;14201;43.188;24.160;2023-04-02T15:12:47;2.63;;;2.42;;
26530;SDS011;14201;43.188;24.160;2023-04-02T15:15:22;1.80;;;1.70;;
26530;SDS011;14201;43.188;24.160;2023-04-02T15:17:58;2.30;;;2.10;;
26530;SDS011;14201;43.188;24.160;2023-04-02T15:20:25;2.45;;;1.85;;
26530;SDS011;14201;43.188;24.160;2023-04-02T15:25:49;1.15;;;0.50;;
26530;SDS011;14201;43.188;24.160;2023-04-02T15:30:57;0.43;;;0.43;;
26530;SDS011;14201;43.188;24.160;2023-04-02T15:38:43;6.25;;;3.83;;
26530;SDS011;14201;43.188;24.160;2023-04-02T15:43:59;0.60;;;0.32;;
26530;SDS011;14201;43.188;24.160;2023-04-02T15:49:32;0.68;;;0.40;;
26530;SDS011;14201;43.188;24.160;2023-04-02T15:52:09;0.40;;;0.40;;
26530;SDS011;14201;43.188;24.160;2023-04-02T16:11:24;0.82;;;0.55;;
26530;SDS011;14201;43.188;24.160;2023-04-02T16:13:51;0.47;;;0.43;;
26530;SDS011;14201;43.188;24.160;2023-04-02T16:16:45;1.58;;;0.55;;
26530;SDS011;14201;43.188;24.160;2023-04-02T16:24:52;2.08;;;0.50;;
26530;SDS011;14201;43.188;24.160;2023-04-02T16:27:30;0.35;;;0.35;;
26530;SDS011;14201;43.188;24.160;2023-04-02T16:35:53;1.20;;;0.63;;
26530;SDS011;14201;43.188;24.160;2023-04-02T16:43:24;3.45;;;0.68;;
26530;SDS011;14201;43.188;24.160;2023-04-02T16:46:11;0.80;;;0.50;;
26530;SDS011;14201;43.188;24.160;2023-04-02T16:49:18;1.08;;;0.65;;
26530;SDS011;14201;43.188;24.160;2023-04-02T16:51:37;3.00;;;0.80;;
26530;SDS011;14201;43.188;24.160;2023-04-02T16:54:16;5.55;;;0.98;;
26530;SDS011;14201;43.188;24.160;2023-04-02T17:05:29;3.45;;;1.30;;
26530;SDS011;14201;43.188;24.160;2023-04-02T17:16:05;1.60;;;0.90;;
26530;SDS011;14201;43.188;24.160;2023-04-02T17:18:36;1.35;;;0.90;;
26530;SDS011;14201;43.188;24.160;2023-04-02T17:21:05;1.80;;;1.20;;
26530;SDS011;14201;43.188;24.160;2023-04-02T17:23:42;1.85;;;0.90;;
26530;SDS011;14201;43.188;24.160;2023-04-02T17:26:14;1.63;;;1.00;;
26530;SDS011;14201;43.188;24.160;2023-04-02T17:28:43;4.22;;;1.60;;
26530;SDS011;14201;43.188;24.160;2023-04-02T17:31:16;3.90;;;2.67;;
26530;SDS011;14201;43.188;24.160;2023-04-02T17:33:45;3.80;;;2.10;;
26530;SDS011;14201;43.188;24.160;2023-04-02T17:39:14;2.88;;;1.10;;
26530;SDS011;14201;43.188;24.160;2023-04-02T17:47:18;4.15;;;1.00;;
26530;SDS011;14201;43.188;24.160;2023-04-02T17:52:55;2.20;;;0.90;;
26530;SDS011;14201;43.188;24.160;2023-04-02T17:58:17;1.58;;;1.10;;
26530;SDS011;14201;43.188;24.160;2023-04-02T18:01:28;2.13;;;0.80;;
26530;SDS011;14201;43.188;24.160;2023-04-02T18:20:51;1.30;;;0.77;;
26530;SDS011;14201;43.188;24.160;2023-04-02T18:23:43;1.77;;;0.90;;
26530;SDS011;14201;43.188;24.160;2023-04-02T18:31:49;2.95;;;0.90;;
26530;SDS011;14201;43.188;24.160;2023-04-02T18:40:59;1.52;;;1.13;;
26530;SDS011;14201;43.188;24.160;2023-04-02T18:51:43;2.05;;;1.23;;
26530;SDS011;14201;43.188;24.160;2023-04-02T18:54:31;2.42;;;1.20;;
26530;SDS011;14201;43.188;24.160;2023-04-02T18:57:04;2.30;;;1.10;;
26530;SDS011;14201;43.188;24.160;2023-04-02T19:04:42;4.97;;;2.80;;
26530;SDS011;14201;43.188;24.160;2023-04-02T19:07:17;4.05;;;2.63;;
26530;SDS011;14201;43.188;24.160;2023-04-02T19:09:46;5.78;;;2.85;;
26530;SDS011;14201;43.188;24.160;2023-04-02T19:12:15;5.20;;;2.95;;
26530;SDS011;14201;43.188;24.160;2023-04-02T19:14:45;4.40;;;2.95;;
26530;SDS011;14201;43.188;24.160;2023-04-02T19:34:35;5.13;;;3.00;;
26530;SDS011;14201;43.188;24.160;2023-04-02T19:37:15;4.25;;;2.80;;
26530;SDS011;14201;43.188;24.160;2023-04-02T19:40:29;7.20;;;2.90;;
26530;SDS011;14201;43.188;24.160;2023-04-02T19:42:56;6.57;;;2.85;;
26530;SDS011;14201;43.188;24.160;2023-04-02T19:48:09;7.22;;;3.20;;
26530;SDS011;14201;43.188;24.160;2023-04-02T19:50:38;4.72;;;3.10;;
26530;SDS011;14201;43.188;24.160;2023-04-02T19:53:04;6.35;;;3.13;;
26530;SDS011;14201;43.188;24.160;2023-04-02T19:55:29;3.33;;;2.40;;
26530;SDS011;14201;43.188;24.160;2023-04-02T19:57:55;4.85;;;2.60;;
26530;SDS011;14201;43.188;24.160;2023-04-02T20:00:21;6.68;;;2.70;;
26530;SDS011;14201;43.188;24.160;2023-04-02T20:02:46;4.60;;;2.35;;
26530;SDS011;14201;43.188;24.160;2023-04-02T20:05:12;6.30;;;2.92;;
26530;SDS011;14201;43.188;24.160;2023-04-02T20:07:38;5.90;;;3.50;;
26530;SDS011;14201;43.188;24.160;2023-04-02T20:10:04;5.40;;;3.40;;
26530;SDS011;14201;43.188;24.160;2023-04-02T20:12:30;7.47;;;3.40;;
26530;SDS011;14201;43.188;24.160;2023-04-02T20:14:55;5.45;;;3.33;;
26530;SDS011;14201;43.188;24.160;2023-04-02T20:17:21;5.25;;;2.58;;
26530;SDS011;14201;43.188;24.160;2023-04-02T20:19:46;4.15;;;2.90;;
26530;SDS011;14201;43.188;24.160;2023-04-02T20:22:12;5.75;;;3.53;;
26530;SDS011;14201;43.188;24.160;2023-04-02T20:24:38;7.13;;;4.47;;
26530;SDS011;14201;43.188;24.160;2023-04-02T20:27:05;6.22;;;4.10;;
26530;SDS011;14201;43.188;24.160;2023-04-02T20:29:30;7.38;;;3.50;;
26530;SDS011;14201;43.188;24.160;2023-04-02T20:31:56;4.45;;;3.35;;
26530;SDS011;14201;43.188;24.160;2023-04-02T20:34:21;7.07;;;3.75;;
26530;SDS011;14201;43.188;24.160;2023-04-02T20:36:47;10.30;;;4.28;;
26530;SDS011;14201;43.188;24.160;2023-04-02T20:39:13;6.95;;;3.53;;
26530;SDS011;14201;43.188;24.160;2023-04-02T20:41:43;7.28;;;4.25;;
26530;SDS011;14201;43.188;24.160;2023-04-02T20:44:09;5.97;;;3.90;;
26530;SDS011;14201;43.188;24.160;2023-04-02T20:46:36;7.07;;;3.13;;
26530;SDS011;14201;43.188;24.160;2023-04-02T20:49:02;7.78;;;3.03;;
26530;SDS011;14201;43.188;24.160;2023-04-02T20:51:28;7.07;;;3.60;;
26530;SDS011;14201;43.188;24.160;2023-04-02T20:53:53;6.03;;;3.55;;
26530;SDS011;14201;43.188;24.160;2023-04-02T20:56:20;7.82;;;4.25;;
26530;SDS011;14201;43.188;24.160;2023-04-02T20:58:47;7.05;;;4.38;;
26530;SDS011;14201;43.188;24.160;2023-04-02T21:01:18;6.60;;;4.32;;
26530;SDS011;14201;43.188;24.160;2023-04-02T21:03:47;7.30;;;3.90;;
26530;SDS011;14201;43.188;24.160;2023-04-02T21:06:14;6.00;;;4.15;;
26530;SDS011;14201;43.188;24.160;2023-04-02T21:08:42;6.85;;;4.28;;
26530;SDS011;14201;43.188;24.160;2023-04-02T21:11:07;10.77;;;4.90;;
26530;SDS011;14201;43.188;24.160;2023-04-02T21:13:33;6.50;;;4.18;;
26530;SDS011;14201;43.188;24.160;2023-04-02T21:16:00;8.38;;;3.85;;
26530;SDS011;14201;43.188;24.160;2023-04-02T21:18:27;8.88;;;4.38;;
26530;SDS011;14201;43.188;24.160;2023-04-02T21:20:57;8.43;;;4.78;;
26530;SDS011;14201;43.188;24.160;2023-04-02T21:23:24;7.40;;;4.70;;
26530;SDS011;14201;43.188;24.160;2023-04-02T21:25:54;9.32;;;4.55;;
26530;SDS011;14201;43.188;24.160;2023-04-02T21:28:20;9.02;;;5.28;;
26530;SDS011;14201;43.188;24.160;2023-04-02T21:30:46;8.75;;;4.55;;
26530;SDS011;14201;43.188;24.160;2023-04-02T21:33:12;6.30;;;4.28;;
26530;SDS011;14201;43.188;24.160;2023-04-02T21:35:37;6.60;;;4.45;;
26530;SDS011;14201;43.188;24.160;2023-04-02T21:38:03;7.68;;;4.43;;
26530;SDS011;14201;43.188;24.160;2023-04-02T21:40:28;7.53;;;4.18;;
26530;SDS011;14201;43.188;24.160;2023-04-02T21:42:54;7.03;;;3.88;;
26530;SDS011;14201;43.188;24.160;2023-04-02T21:45:19;7.28;;;4.57;;
26530;SDS011;14201;43.188;24.160;2023-04-02T21:47:45;7.78;;;4.38;;
26530;SDS011;14201;43.188;24.160;2023-04-02T21:50:10;7.18;;;4.70;;
26530;SDS011;14201;43.188;24.160;2023-04-02T21:52:36;7.90;;;4.20;;
26530;SDS011;14201;43.188;24.160;2023-04-02T21:55:02;8.82;;;4.82;;
26530;SDS011;14201;43.188;24.160;2023-04-02T21:57:27;7.60;;;4.47;;
26530;SDS011;14201;43.188;24.160;2023-04-02T21:59:53;8.48;;;4.45;;
26530;SDS011;14201;43.188;24.160;2023-04-02T22:02:21;8.38;;;4.60;;
26530;SDS011;14201;43.188;24.160;2023-04-02T22:04:47;7.95;;;4.57;;
26530;SDS011;14201;43.188;24.160;2023-04-02T22:07:12;7.60;;;4.80;;
26530;SDS011;14201;43.188;24.160;2023-04-02T22:09:38;10.55;;;4.50;;
26530;SDS011;14201;43.188;24.160;2023-04-02T22:12:03;7.20;;;4.30;;
26530;SDS011;14201;43.188;24.160;2023-04-02T22:14:32;11.35;;;4.60;;
26530;SDS011;14201;43.188;24.160;2023-04-02T22:16:58;6.63;;;4.35;;
26530;SDS011;14201;43.188;24.160;2023-04-02T22:19:23;7.97;;;4.72;;
26530;SDS011;14201;43.188;24.160;2023-04-02T22:21:49;6.88;;;4.45;;
26530;SDS011;14201;43.188;24.160;2023-04-02T22:24:16;6.45;;;4.20;;
26530;SDS011;14201;43.188;24.160;2023-04-02T22:26:51;6.40;;;4.18;;
26530;SDS011;14201;43.188;24.160;2023-04-02T22:29:16;9.88;;;4.03;;
26530;SDS011;14201;43.188;24.160;2023-04-02T22:31:42;8.43;;;4.38;;
26530;SDS011;14201;43.188;24.160;2023-04-02T22:34:08;8.77;;;4.53;;
26530;SDS011;14201;43.188;24.160;2023-04-02T22:36:33;9.05;;;4.25;;
26530;SDS011;14201;43.188;24.160;2023-04-02T22:39:00;5.80;;;3.67;;
26530;SDS011;14201;43.188;24.160;2023-04-02T22:41:29;6.18;;;3.95;;
26530;SDS011;14201;43.188;24.160;2023-04-02T22:43:56;7.85;;;4.50;;
26530;SDS011;14201;43.188;24.160;2023-04-02T22:46:23;6.88;;;3.72;;
26530;SDS011;14201;43.188;24.160;2023-04-02T22:48:50;6.50;;;4.20;;
26530;SDS011;14201;43.188;24.160;2023-04-02T22:51:16;6.05;;;4.65;;
26530;SDS011;14201;43.188;24.160;2023-04-02T22:53:43;6.50;;;4.57;;
26530;SDS011;14201;43.188;24.160;2023-04-02T22:56:17;7.90;;;4.50;;
26530;SDS011;14201;43.188;24.160;2023-04-02T22:58:44;7.82;;;4.53;;
26530;SDS011;14201;43.188;24.160;2023-04-02T23:01:14;5.13;;;3.60;;
26530;SDS011;14201;43.188;24.160;2023-04-02T23:03:42;6.38;;;4.20;;
26530;SDS011;14201;43.188;24.160;2023-04-02T23:06:09;5.57;;;4.10;;
26530;SDS011;14201;43.188;24.160;2023-04-02T23:08:36;7.25;;;5.32;;
26530;SDS011;14201;43.188;24.160;2023-04-02T23:11:04;8.98;;;5.53;;
26530;SDS011;14201;43.188;24.160;2023-04-02T23:13:32;7.97;;;5.57;;
26530;SDS011;14201;43.188;24.160;2023-04-02T23:16:01;8.63;;;4.90;;
26530;SDS011;14201;43.188;24.160;2023-04-02T23:18:28;7.80;;;4.97;;
26530;SDS011;14201;43.188;24.160;2023-04-02T23:20:56;8.77;;;4.95;;
26530;SDS011;14201;43.188;24.160;2023-04-02T23:23:21;9.27;;;4.97;;
26530;SDS011;14201;43.188;24.160;2023-04-02T23:25:47;7.90;;;4.85;;
26530;SDS011;14201;43.188;24.160;2023-04-02T23:28:12;9.68;;;4.93;;
26530;SDS011;14201;43.188;24.160;2023-04-02T23:30:41;7.47;;;4.47;;
26530;SDS011;14201;43.188;24.160;2023-04-02T23:33:08;7.05;;;3.85;;
26530;SDS011;14201;43.188;24.160;2023-04-02T23:35:34;8.50;;;4.93;;
26530;SDS011;14201;43.188;24.160;2023-04-02T23:37:59;7.90;;;4.80;;
26530;SDS011;14201;43.188;24.160;2023-04-02T23:40:25;8.25;;;4.30;;
26530;SDS011;14201;43.188;24.160;2023-04-02T23:42:51;9.65;;;4.30;;
26530;SDS011;14201;43.188;24.160;2023-04-02T23:45:16;6.30;;;4.30;;
26530;SDS011;14201;43.188;24.160;2023-04-02T23:47:42;5.75;;;4.25;;
26530;SDS011;14201;43.188;24.160;2023-04-02T23:50:08;5.88;;;3.88;;
26530;SDS011;14201;43.188;24.160;2023-04-02T23:52:33;5.75;;;4.10;;
26530;SDS011;14201;43.188;24.160;2023-04-02T23:54:59;7.72;;;3.95;;
26530;SDS011;14201;43.188;24.160;2023-04-02T23:57:25;6.20;;;3.65;;
26530;SDS011;14201;43.188;24.160;2023-04-02T23:59:50;6.97;;;3.67;;
